sensor_id;sensor_type;location;lat;lon;timestamp;P1;durP1;ratioP1;P2;durP2;ratioP2
12228;SDS011;6177;52.402;9.800;2023-03-20T00:00:31;17.23;;;15.73;;
12228;SDS011;6177;52.402;9.800;2023-03-20T00:03:23;18.23;;;16.30;;
12228;SDS011;6177;52.402;9.800;2023-03-20T00:06:17;19.70;;;17.90;;
12228;SDS011;6177;52.402;9.800;2023-03-20T00:09:12;21.57;;;19.37;;
12228;SDS011;6177;52.402;9.800;2023-03-20T00:12:03;22.97;;;20.67;;
12228;SDS011;6177;52.402;9.800;2023-03-20T00:14:53;25.17;;;22.67;;
12228;SDS011;6177;52.402;9.800;2023-03-20T00:17:44;24.67;;;22.17;;
12228;SDS011;6177;52.402;9.800;2023-03-20T00:20:35;27.00;;;24.10;;
12228;SDS011;6177;52.402;9.800;2023-03-20T00:23:25;29.13;;;25.87;;
12228;SDS011;6177;52.402;9.800;2023-03-20T00:26:17;33.43;;;26.90;;
12228;SDS011;6177;52.402;9.800;2023-03-20T00:29:12;40.00;;;32.10;;
12228;SDS011;6177;52.402;9.800;2023-03-20T00:32:11;37.47;;;28.70;;
12228;SDS011;6177;52.402;9.800;2023-03-20T00:35:07;35.53;;;30.63;;
12228;SDS011;6177;52.402;9.800;2023-03-20T00:38:06;32.83;;;27.40;;
12228;SDS011;6177;52.402;9.800;2023-03-20T00:40:58;35.17;;;28.90;;
12228;SDS011;6177;52.402;9.800;2023-03-20T00:43:49;32.57;;;28.77;;
12228;SDS011;6177;52.402;9.800;2023-03-20T00:46:43;35.43;;;29.27;;
12228;SDS011;6177;52.402;9.800;2023-03-20T00:49:35;32.23;;;28.83;;
12228;SDS011;6177;52.402;9.800;2023-03-20T00:52:26;32.73;;;29.17;;
12228;SDS011;6177;52.402;9.800;2023-03-20T00:55:18;31.93;;;28.40;;
12228;SDS011;6177;52.402;9.800;2023-03-20T00:58:11;30.27;;;27.07;;
12228;SDS011;6177;52.402;9.800;2023-03-20T01:01:03;27.10;;;24.27;;
12228;SDS011;6177;52.402;9.800;2023-03-20T01:03:53;28.73;;;25.37;;
12228;SDS011;6177;52.402;9.800;2023-03-20T01:06:44;27.87;;;24.90;;
12228;SDS011;6177;52.402;9.800;2023-03-20T01:09:35;28.00;;;25.00;;
12228;SDS011;6177;52.402;9.800;2023-03-20T01:12:26;28.90;;;25.83;;
12228;SDS011;6177;52.402;9.800;2023-03-20T01:15:19;29.70;;;25.40;;
12228;SDS011;6177;52.402;9.800;2023-03-20T01:18:15;29.93;;;24.90;;
12228;SDS011;6177;52.402;9.800;2023-03-20T01:21:07;28.73;;;25.50;;
12228;SDS011;6177;52.402;9.800;2023-03-20T01:23:58;30.77;;;24.40;;
12228;SDS011;6177;52.402;9.800;2023-03-20T01:26:49;28.97;;;24.67;;
12228;SDS011;6177;52.402;9.800;2023-03-20T01:29:42;29.23;;;25.17;;
12228;SDS011;6177;52.402;9.800;2023-03-20T01:32:34;30.47;;;26.13;;
12228;SDS011;6177;52.402;9.800;2023-03-20T01:35:26;31.47;;;24.53;;
12228;SDS011;6177;52.402;9.800;2023-03-20T01:38:24;30.83;;;26.40;;
12228;SDS011;6177;52.402;9.800;2023-03-20T01:41:18;35.30;;;26.30;;
12228;SDS011;6177;52.402;9.800;2023-03-20T01:44:42;33.20;;;26.00;;
12228;SDS011;6177;52.402;9.800;2023-03-20T01:47:28;37.83;;;29.40;;
12228;SDS011;6177;52.402;9.800;2023-03-20T01:50:27;38.43;;;29.60;;
12228;SDS011;6177;52.402;9.800;2023-03-20T01:53:27;33.90;;;24.73;;
12228;SDS011;6177;52.402;9.800;2023-03-20T01:56:22;33.10;;;26.60;;
12228;SDS011;6177;52.402;9.800;2023-03-20T01:59:16;28.17;;;24.40;;
12228;SDS011;6177;52.402;9.800;2023-03-20T02:02:13;27.30;;;21.23;;
12228;SDS011;6177;52.402;9.800;2023-03-20T02:05:07;26.33;;;21.50;;
12228;SDS011;6177;52.402;9.800;2023-03-20T02:08:07;24.80;;;20.47;;
12228;SDS011;6177;52.402;9.800;2023-03-20T02:11:07;25.70;;;19.77;;
12228;SDS011;6177;52.402;9.800;2023-03-20T02:13:59;24.47;;;19.73;;
12228;SDS011;6177;52.402;9.800;2023-03-20T02:16:54;23.60;;;18.33;;
12228;SDS011;6177;52.402;9.800;2023-03-20T02:26:37;20.40;;;16.03;;
12228;SDS011;6177;52.402;9.800;2023-03-20T02:42:09;18.70;;;14.17;;
12228;SDS011;6177;52.402;9.800;2023-03-20T02:45:16;20.03;;;15.67;;
12228;SDS011;6177;52.402;9.800;2023-03-20T02:48:32;18.73;;;15.40;;
12228;SDS011;6177;52.402;9.800;2023-03-20T02:54:43;21.73;;;16.83;;
12228;SDS011;6177;52.402;9.800;2023-03-20T03:00:57;22.63;;;17.23;;
12228;SDS011;6177;52.402;9.800;2023-03-20T03:03:55;20.07;;;16.87;;
12228;SDS011;6177;52.402;9.800;2023-03-20T03:06:49;19.30;;;15.33;;
12228;SDS011;6177;52.402;9.800;2023-03-20T03:09:44;20.30;;;16.47;;
12228;SDS011;6177;52.402;9.800;2023-03-20T03:12:37;19.70;;;15.37;;
12228;SDS011;6177;52.402;9.800;2023-03-20T03:15:31;17.97;;;15.63;;
12228;SDS011;6177;52.402;9.800;2023-03-20T03:18:24;21.20;;;16.87;;
12228;SDS011;6177;52.402;9.800;2023-03-20T03:21:16;20.03;;;16.13;;
12228;SDS011;6177;52.402;9.800;2023-03-20T03:24:19;18.37;;;14.90;;
12228;SDS011;6177;52.402;9.800;2023-03-20T03:27:56;17.60;;;15.27;;
12228;SDS011;6177;52.402;9.800;2023-03-20T03:30:29;18.33;;;14.53;;
12228;SDS011;6177;52.402;9.800;2023-03-20T03:42:30;17.00;;;14.73;;
12228;SDS011;6177;52.402;9.800;2023-03-20T03:48:26;17.57;;;14.47;;
12228;SDS011;6177;52.402;9.800;2023-03-20T03:51:24;18.20;;;15.93;;
12228;SDS011;6177;52.402;9.800;2023-03-20T03:54:24;18.47;;;15.83;;
12228;SDS011;6177;52.402;9.800;2023-03-20T03:57:45;20.33;;;16.57;;
12228;SDS011;6177;52.402;9.800;2023-03-20T04:00:41;20.33;;;16.50;;
12228;SDS011;6177;52.402;9.800;2023-03-20T04:03:35;22.53;;;16.93;;
12228;SDS011;6177;52.402;9.800;2023-03-20T04:06:28;21.80;;;16.97;;
12228;SDS011;6177;52.402;9.800;2023-03-20T04:09:19;21.53;;;17.07;;
12228;SDS011;6177;52.402;9.800;2023-03-20T04:15:22;21.40;;;17.50;;
12228;SDS011;6177;52.402;9.800;2023-03-20T04:18:16;22.97;;;18.00;;
12228;SDS011;6177;52.402;9.800;2023-03-20T04:21:09;23.10;;;18.00;;
12228;SDS011;6177;52.402;9.800;2023-03-20T04:24:00;24.77;;;18.73;;
12228;SDS011;6177;52.402;9.800;2023-03-20T04:26:51;22.87;;;18.63;;
12228;SDS011;6177;52.402;9.800;2023-03-20T04:29:42;22.13;;;16.83;;
12228;SDS011;6177;52.402;9.800;2023-03-20T04:32:52;22.67;;;16.20;;
12228;SDS011;6177;52.402;9.800;2023-03-20T04:35:52;26.10;;;19.40;;
12228;SDS011;6177;52.402;9.800;2023-03-20T04:38:42;25.00;;;19.93;;
12228;SDS011;6177;52.402;9.800;2023-03-20T04:41:34;24.97;;;19.37;;
12228;SDS011;6177;52.402;9.800;2023-03-20T04:44:26;27.07;;;20.07;;
12228;SDS011;6177;52.402;9.800;2023-03-20T04:47:17;25.73;;;20.33;;
12228;SDS011;6177;52.402;9.800;2023-03-20T04:50:08;23.57;;;18.77;;
12228;SDS011;6177;52.402;9.800;2023-03-20T04:53:00;26.50;;;19.70;;
12228;SDS011;6177;52.402;9.800;2023-03-20T04:55:50;29.10;;;20.03;;
12228;SDS011;6177;52.402;9.800;2023-03-20T04:58:42;27.23;;;21.10;;
12228;SDS011;6177;52.402;9.800;2023-03-20T05:01:33;26.83;;;19.53;;
12228;SDS011;6177;52.402;9.800;2023-03-20T05:04:25;27.60;;;19.83;;
12228;SDS011;6177;52.402;9.800;2023-03-20T05:07:17;30.27;;;21.10;;
12228;SDS011;6177;52.402;9.800;2023-03-20T05:10:25;28.37;;;21.37;;
12228;SDS011;6177;52.402;9.800;2023-03-20T05:13:28;27.43;;;19.67;;
12228;SDS011;6177;52.402;9.800;2023-03-20T05:16:37;28.17;;;19.83;;
12228;SDS011;6177;52.402;9.800;2023-03-20T05:19:49;27.47;;;20.20;;
12228;SDS011;6177;52.402;9.800;2023-03-20T05:22:58;24.37;;;18.43;;
12228;SDS011;6177;52.402;9.800;2023-03-20T05:26:07;25.53;;;19.37;;
12228;SDS011;6177;52.402;9.800;2023-03-20T05:29:18;23.93;;;18.63;;
12228;SDS011;6177;52.402;9.800;2023-03-20T05:32:30;22.93;;;18.27;;
12228;SDS011;6177;52.402;9.800;2023-03-20T05:35:39;23.73;;;18.37;;
12228;SDS011;6177;52.402;9.800;2023-03-20T05:38:45;24.47;;;18.43;;
12228;SDS011;6177;52.402;9.800;2023-03-20T05:41:54;23.67;;;19.77;;
12228;SDS011;6177;52.402;9.800;2023-03-20T05:45:02;23.43;;;17.00;;
12228;SDS011;6177;52.402;9.800;2023-03-20T05:48:23;23.57;;;19.73;;
12228;SDS011;6177;52.402;9.800;2023-03-20T05:51:34;21.50;;;17.70;;
12228;SDS011;6177;52.402;9.800;2023-03-20T05:54:43;24.37;;;19.07;;
12228;SDS011;6177;52.402;9.800;2023-03-20T05:58:03;21.40;;;16.50;;
12228;SDS011;6177;52.402;9.800;2023-03-20T06:01:17;26.07;;;19.57;;
12228;SDS011;6177;52.402;9.800;2023-03-20T06:04:29;26.63;;;19.53;;
12228;SDS011;6177;52.402;9.800;2023-03-20T06:07:39;28.30;;;20.97;;
12228;SDS011;6177;52.402;9.800;2023-03-20T06:10:35;24.43;;;19.33;;
12228;SDS011;6177;52.402;9.800;2023-03-20T06:13:26;24.53;;;17.10;;
12228;SDS011;6177;52.402;9.800;2023-03-20T06:16:17;25.57;;;20.63;;
12228;SDS011;6177;52.402;9.800;2023-03-20T06:19:07;27.77;;;19.13;;
12228;SDS011;6177;52.402;9.800;2023-03-20T06:21:59;24.17;;;20.10;;
12228;SDS011;6177;52.402;9.800;2023-03-20T06:24:50;29.17;;;20.13;;
12228;SDS011;6177;52.402;9.800;2023-03-20T06:27:42;27.47;;;19.83;;
12228;SDS011;6177;52.402;9.800;2023-03-20T06:30:33;27.83;;;20.80;;
12228;SDS011;6177;52.402;9.800;2023-03-20T06:33:24;23.93;;;19.23;;
12228;SDS011;6177;52.402;9.800;2023-03-20T06:36:21;25.17;;;19.47;;
12228;SDS011;6177;52.402;9.800;2023-03-20T06:39:16;25.00;;;19.90;;
12228;SDS011;6177;52.402;9.800;2023-03-20T06:42:08;24.73;;;20.30;;
12228;SDS011;6177;52.402;9.800;2023-03-20T06:45:00;22.00;;;19.50;;
12228;SDS011;6177;52.402;9.800;2023-03-20T06:48:26;24.33;;;19.57;;
12228;SDS011;6177;52.402;9.800;2023-03-20T06:51:17;25.07;;;18.20;;
12228;SDS011;6177;52.402;9.800;2023-03-20T06:54:14;23.10;;;17.73;;
12228;SDS011;6177;52.402;9.800;2023-03-20T06:57:06;22.03;;;15.93;;
12228;SDS011;6177;52.402;9.800;2023-03-20T06:59:57;24.47;;;20.40;;
12228;SDS011;6177;52.402;9.800;2023-03-20T07:02:48;22.80;;;19.50;;
12228;SDS011;6177;52.402;9.800;2023-03-20T07:05:40;22.03;;;19.33;;
12228;SDS011;6177;52.402;9.800;2023-03-20T07:08:34;20.93;;;16.93;;
12228;SDS011;6177;52.402;9.800;2023-03-20T07:11:26;22.00;;;18.97;;
12228;SDS011;6177;52.402;9.800;2023-03-20T07:14:19;20.00;;;16.80;;
12228;SDS011;6177;52.402;9.800;2023-03-20T07:17:16;17.47;;;15.03;;
12228;SDS011;6177;52.402;9.800;2023-03-20T07:20:08;13.17;;;11.63;;
12228;SDS011;6177;52.402;9.800;2023-03-20T07:23:00;16.37;;;14.77;;
12228;SDS011;6177;52.402;9.800;2023-03-20T07:25:54;11.90;;;10.43;;
12228;SDS011;6177;52.402;9.800;2023-03-20T07:28:45;14.23;;;12.00;;
12228;SDS011;6177;52.402;9.800;2023-03-20T07:31:43;12.80;;;11.10;;
12228;SDS011;6177;52.402;9.800;2023-03-20T07:34:48;12.27;;;11.07;;
12228;SDS011;6177;52.402;9.800;2023-03-20T07:37:40;12.30;;;11.20;;
12228;SDS011;6177;52.402;9.800;2023-03-20T07:40:31;12.03;;;9.97;;
12228;SDS011;6177;52.402;9.800;2023-03-20T07:43:27;14.00;;;12.60;;
12228;SDS011;6177;52.402;9.800;2023-03-20T07:46:23;13.87;;;12.40;;
12228;SDS011;6177;52.402;9.800;2023-03-20T07:49:15;12.90;;;11.60;;
12228;SDS011;6177;52.402;9.800;2023-03-20T07:52:09;13.07;;;11.97;;
12228;SDS011;6177;52.402;9.800;2023-03-20T07:55:00;13.60;;;10.83;;
12228;SDS011;6177;52.402;9.800;2023-03-20T07:57:50;14.10;;;12.70;;
12228;SDS011;6177;52.402;9.800;2023-03-20T08:00:41;12.17;;;7.90;;
12228;SDS011;6177;52.402;9.800;2023-03-20T08:03:32;14.10;;;12.80;;
12228;SDS011;6177;52.402;9.800;2023-03-20T08:06:23;12.93;;;11.60;;
12228;SDS011;6177;52.402;9.800;2023-03-20T08:09:14;13.70;;;12.37;;
12228;SDS011;6177;52.402;9.800;2023-03-20T08:12:05;12.47;;;11.17;;
12228;SDS011;6177;52.402;9.800;2023-03-20T08:14:57;14.53;;;12.77;;
12228;SDS011;6177;52.402;9.800;2023-03-20T08:17:48;12.67;;;11.37;;
12228;SDS011;6177;52.402;9.800;2023-03-20T08:20:39;13.67;;;12.47;;
12228;SDS011;6177;52.402;9.800;2023-03-20T08:23:30;12.73;;;11.53;;
12228;SDS011;6177;52.402;9.800;2023-03-20T08:26:21;14.33;;;12.87;;
12228;SDS011;6177;52.402;9.800;2023-03-20T08:29:13;13.50;;;12.20;;
12228;SDS011;6177;52.402;9.800;2023-03-20T08:32:06;13.57;;;12.17;;
12228;SDS011;6177;52.402;9.800;2023-03-20T08:34:57;12.00;;;10.17;;
12228;SDS011;6177;52.402;9.800;2023-03-20T08:37:48;14.27;;;12.07;;
12228;SDS011;6177;52.402;9.800;2023-03-20T08:40:42;13.47;;;12.10;;
12228;SDS011;6177;52.402;9.800;2023-03-20T08:43:33;10.30;;;7.80;;
12228;SDS011;6177;52.402;9.800;2023-03-20T08:46:24;14.77;;;13.37;;
12228;SDS011;6177;52.402;9.800;2023-03-20T08:49:15;15.03;;;13.50;;
12228;SDS011;6177;52.402;9.800;2023-03-20T08:52:06;14.00;;;12.60;;
12228;SDS011;6177;52.402;9.800;2023-03-20T08:54:56;13.43;;;11.83;;
12228;SDS011;6177;52.402;9.800;2023-03-20T08:57:47;11.93;;;9.67;;
12228;SDS011;6177;52.402;9.800;2023-03-20T09:00:38;14.67;;;13.27;;
12228;SDS011;6177;52.402;9.800;2023-03-20T09:03:29;14.17;;;12.87;;
12228;SDS011;6177;52.402;9.800;2023-03-20T09:06:21;13.07;;;11.93;;
12228;SDS011;6177;52.402;9.800;2023-03-20T09:09:12;12.10;;;11.00;;
12228;SDS011;6177;52.402;9.800;2023-03-20T09:12:05;11.23;;;10.23;;
12228;SDS011;6177;52.402;9.800;2023-03-20T09:14:56;11.90;;;10.80;;
12228;SDS011;6177;52.402;9.800;2023-03-20T09:17:47;12.13;;;10.93;;
12228;SDS011;6177;52.402;9.800;2023-03-20T09:20:38;11.47;;;10.27;;
12228;SDS011;6177;52.402;9.800;2023-03-20T09:23:29;11.13;;;9.93;;
12228;SDS011;6177;52.402;9.800;2023-03-20T09:26:21;9.03;;;8.13;;
12228;SDS011;6177;52.402;9.800;2023-03-20T09:29:12;12.97;;;11.70;;
12228;SDS011;6177;52.402;9.800;2023-03-20T09:32:03;12.27;;;11.07;;
12228;SDS011;6177;52.402;9.800;2023-03-20T09:34:54;14.50;;;13.10;;
12228;SDS011;6177;52.402;9.800;2023-03-20T09:37:45;14.63;;;13.17;;
12228;SDS011;6177;52.402;9.800;2023-03-20T09:49:47;12.67;;;11.57;;
12228;SDS011;6177;52.402;9.800;2023-03-20T09:52:50;13.93;;;12.63;;
12228;SDS011;6177;52.402;9.800;2023-03-20T09:55:44;13.90;;;12.57;;
12228;SDS011;6177;52.402;9.800;2023-03-20T09:58:35;10.90;;;9.90;;
12228;SDS011;6177;52.402;9.800;2023-03-20T10:01:32;12.50;;;11.30;;
12228;SDS011;6177;52.402;9.800;2023-03-20T10:04:27;13.53;;;12.23;;
12228;SDS011;6177;52.402;9.800;2023-03-20T10:07:18;11.70;;;10.77;;
12228;SDS011;6177;52.402;9.800;2023-03-20T10:10:12;9.93;;;9.00;;
12228;SDS011;6177;52.402;9.800;2023-03-20T10:19:23;10.33;;;9.47;;
12228;SDS011;6177;52.402;9.800;2023-03-20T10:22:37;9.77;;;8.97;;
12228;SDS011;6177;52.402;9.800;2023-03-20T10:25:42;11.23;;;10.20;;
12228;SDS011;6177;52.402;9.800;2023-03-20T10:28:39;8.93;;;8.10;;
12228;SDS011;6177;52.402;9.800;2023-03-20T10:38:26;7.90;;;7.30;;
12228;SDS011;6177;52.402;9.800;2023-03-20T10:41:41;4.13;;;3.90;;
12228;SDS011;6177;52.402;9.800;2023-03-20T10:44:36;6.97;;;6.33;;
12228;SDS011;6177;52.402;9.800;2023-03-20T10:47:29;5.27;;;4.87;;
12228;SDS011;6177;52.402;9.800;2023-03-20T10:50:23;5.10;;;4.70;;
12228;SDS011;6177;52.402;9.800;2023-03-20T10:53:22;5.13;;;4.73;;
12228;SDS011;6177;52.402;9.800;2023-03-20T10:56:18;5.80;;;5.30;;
12228;SDS011;6177;52.402;9.800;2023-03-20T10:59:26;5.73;;;5.30;;
12228;SDS011;6177;52.402;9.800;2023-03-20T11:02:19;5.20;;;4.77;;
12228;SDS011;6177;52.402;9.800;2023-03-20T11:05:30;4.43;;;4.13;;
12228;SDS011;6177;52.402;9.800;2023-03-20T11:08:22;4.77;;;4.37;;
12228;SDS011;6177;52.402;9.800;2023-03-20T11:11:14;4.27;;;3.97;;
12228;SDS011;6177;52.402;9.800;2023-03-20T11:14:18;4.53;;;4.13;;
12228;SDS011;6177;52.402;9.800;2023-03-20T11:17:12;3.63;;;3.33;;
12228;SDS011;6177;52.402;9.800;2023-03-20T11:20:03;4.10;;;3.80;;
12228;SDS011;6177;52.402;9.800;2023-03-20T11:22:56;4.50;;;4.30;;
12228;SDS011;6177;52.402;9.800;2023-03-20T11:26:10;4.23;;;3.80;;
12228;SDS011;6177;52.402;9.800;2023-03-20T11:29:01;4.37;;;3.97;;
12228;SDS011;6177;52.402;9.800;2023-03-20T11:32:02;4.27;;;3.97;;
12228;SDS011;6177;52.402;9.800;2023-03-20T11:38:24;4.80;;;4.50;;
12228;SDS011;6177;52.402;9.800;2023-03-20T11:41:21;5.47;;;5.00;;
12228;SDS011;6177;52.402;9.800;2023-03-20T11:47:19;4.30;;;4.00;;
12228;SDS011;6177;52.402;9.800;2023-03-20T11:50:26;4.37;;;4.07;;
12228;SDS011;6177;52.402;9.800;2023-03-20T11:56:33;4.90;;;4.27;;
12228;SDS011;6177;52.402;9.800;2023-03-20T11:59:31;3.87;;;3.67;;
12228;SDS011;6177;52.402;9.800;2023-03-20T12:02:23;4.60;;;4.13;;
12228;SDS011;6177;52.402;9.800;2023-03-20T12:08:21;4.27;;;3.97;;
12228;SDS011;6177;52.402;9.800;2023-03-20T12:11:26;3.97;;;3.60;;
12228;SDS011;6177;52.402;9.800;2023-03-20T12:17:47;4.03;;;3.73;;
12228;SDS011;6177;52.402;9.800;2023-03-20T12:23:48;4.40;;;4.10;;
12228;SDS011;6177;52.402;9.800;2023-03-20T12:32:40;7.50;;;4.20;;
12228;SDS011;6177;52.402;9.800;2023-03-20T12:35:36;4.37;;;4.07;;
12228;SDS011;6177;52.402;9.800;2023-03-20T12:38:30;4.60;;;4.30;;
12228;SDS011;6177;52.402;9.800;2023-03-20T12:41:29;4.57;;;4.20;;
12228;SDS011;6177;52.402;9.800;2023-03-20T12:44:29;3.70;;;3.50;;
12228;SDS011;6177;52.402;9.800;2023-03-20T12:53:42;4.30;;;4.03;;
12228;SDS011;6177;52.402;9.800;2023-03-20T12:56:47;4.40;;;4.00;;
12228;SDS011;6177;52.402;9.800;2023-03-20T12:59:52;3.97;;;3.67;;
12228;SDS011;6177;52.402;9.800;2023-03-20T13:15:18;3.63;;;3.33;;
12228;SDS011;6177;52.402;9.800;2023-03-20T13:18:16;3.87;;;3.37;;
12228;SDS011;6177;52.402;9.800;2023-03-20T13:21:46;3.10;;;2.97;;
12228;SDS011;6177;52.402;9.800;2023-03-20T13:24:49;3.97;;;3.60;;
12228;SDS011;6177;52.402;9.800;2023-03-20T13:27:45;3.70;;;3.33;;
12228;SDS011;6177;52.402;9.800;2023-03-20T13:30:51;3.55;;;3.25;;
12228;SDS011;6177;52.402;9.800;2023-03-20T13:40:02;5.20;;;3.20;;
12228;SDS011;6177;52.402;9.800;2023-03-20T13:43:29;4.10;;;3.40;;
12228;SDS011;6177;52.402;9.800;2023-03-20T13:46:24;3.40;;;3.10;;
12228;SDS011;6177;52.402;9.800;2023-03-20T13:49:23;2.67;;;2.47;;
12228;SDS011;6177;52.402;9.800;2023-03-20T13:52:52;3.20;;;2.90;;
12228;SDS011;6177;52.402;9.800;2023-03-20T14:05:18;4.07;;;3.60;;
12228;SDS011;6177;52.402;9.800;2023-03-20T14:14:12;3.72;;;3.42;;
12228;SDS011;6177;52.402;9.800;2023-03-20T14:17:06;3.85;;;3.15;;
12228;SDS011;6177;52.402;9.800;2023-03-20T14:20:08;3.17;;;2.97;;
12228;SDS011;6177;52.402;9.800;2023-03-20T14:23:01;3.47;;;3.17;;
12228;SDS011;6177;52.402;9.800;2023-03-20T14:25:52;4.33;;;3.37;;
12228;SDS011;6177;52.402;9.800;2023-03-20T14:28:57;3.67;;;3.47;;
12228;SDS011;6177;52.402;9.800;2023-03-20T14:35:23;2.53;;;2.43;;
12228;SDS011;6177;52.402;9.800;2023-03-20T14:53:20;3.80;;;3.17;;
12228;SDS011;6177;52.402;9.800;2023-03-20T14:56:13;3.80;;;2.93;;
12228;SDS011;6177;52.402;9.800;2023-03-20T14:59:04;2.87;;;2.53;;
12228;SDS011;6177;52.402;9.800;2023-03-20T15:01:57;4.43;;;2.97;;
12228;SDS011;6177;52.402;9.800;2023-03-20T15:04:49;3.30;;;2.83;;
12228;SDS011;6177;52.402;9.800;2023-03-20T15:07:40;2.97;;;2.70;;
12228;SDS011;6177;52.402;9.800;2023-03-20T15:10:33;2.73;;;2.50;;
12228;SDS011;6177;52.402;9.800;2023-03-20T15:13:26;3.57;;;3.27;;
12228;SDS011;6177;52.402;9.800;2023-03-20T15:16:26;4.20;;;3.03;;
12228;SDS011;6177;52.402;9.800;2023-03-20T15:19:21;2.67;;;2.57;;
12228;SDS011;6177;52.402;9.800;2023-03-20T15:22:16;4.37;;;3.23;;
12228;SDS011;6177;52.402;9.800;2023-03-20T15:25:14;3.30;;;2.80;;
12228;SDS011;6177;52.402;9.800;2023-03-20T15:28:06;3.27;;;2.97;;
12228;SDS011;6177;52.402;9.800;2023-03-20T15:30:58;4.30;;;2.90;;
12228;SDS011;6177;52.402;9.800;2023-03-20T15:33:50;3.00;;;2.70;;
12228;SDS011;6177;52.402;9.800;2023-03-20T15:36:41;3.50;;;2.43;;
12228;SDS011;6177;52.402;9.800;2023-03-20T15:39:40;3.80;;;2.97;;
12228;SDS011;6177;52.402;9.800;2023-03-20T15:42:38;4.00;;;2.13;;
12228;SDS011;6177;52.402;9.800;2023-03-20T15:45:33;3.30;;;2.97;;
12228;SDS011;6177;52.402;9.800;2023-03-20T15:48:25;3.33;;;3.03;;
12228;SDS011;6177;52.402;9.800;2023-03-20T15:51:16;2.77;;;2.57;;
12228;SDS011;6177;52.402;9.800;2023-03-20T15:54:08;2.73;;;2.53;;
12228;SDS011;6177;52.402;9.800;2023-03-20T15:57:00;2.70;;;2.23;;
12228;SDS011;6177;52.402;9.800;2023-03-20T15:59:51;2.90;;;2.60;;
12228;SDS011;6177;52.402;9.800;2023-03-20T16:02:43;2.53;;;2.30;;
12228;SDS011;6177;52.402;9.800;2023-03-20T16:05:35;3.10;;;2.80;;
12228;SDS011;6177;52.402;9.800;2023-03-20T16:08:27;2.87;;;2.67;;
12228;SDS011;6177;52.402;9.800;2023-03-20T16:11:21;3.10;;;2.83;;
12228;SDS011;6177;52.402;9.800;2023-03-20T16:14:13;3.10;;;2.90;;
12228;SDS011;6177;52.402;9.800;2023-03-20T16:17:06;5.23;;;2.97;;
12228;SDS011;6177;52.402;9.800;2023-03-20T16:19:57;4.53;;;2.80;;
12228;SDS011;6177;52.402;9.800;2023-03-20T16:22:47;3.07;;;2.80;;
12228;SDS011;6177;52.402;9.800;2023-03-20T16:25:38;4.57;;;2.80;;
12228;SDS011;6177;52.402;9.800;2023-03-20T16:28:29;2.90;;;2.70;;
12228;SDS011;6177;52.402;9.800;2023-03-20T16:31:21;4.43;;;3.33;;
12228;SDS011;6177;52.402;9.800;2023-03-20T16:34:20;2.83;;;2.63;;
12228;SDS011;6177;52.402;9.800;2023-03-20T16:37:31;4.60;;;3.30;;
12228;SDS011;6177;52.402;9.800;2023-03-20T16:43:18;6.23;;;3.73;;
12228;SDS011;6177;52.402;9.800;2023-03-20T16:46:16;4.00;;;3.70;;
12228;SDS011;6177;52.402;9.800;2023-03-20T16:52:24;5.37;;;4.93;;
12228;SDS011;6177;52.402;9.800;2023-03-20T16:55:20;5.20;;;4.90;;
12228;SDS011;6177;52.402;9.800;2023-03-20T16:58:23;5.20;;;4.90;;
12228;SDS011;6177;52.402;9.800;2023-03-20T17:01:17;4.80;;;4.50;;
12228;SDS011;6177;52.402;9.800;2023-03-20T17:04:23;5.13;;;4.63;;
12228;SDS011;6177;52.402;9.800;2023-03-20T17:07:18;4.53;;;4.13;;
12228;SDS011;6177;52.402;9.800;2023-03-20T17:13:05;5.33;;;4.90;;
12228;SDS011;6177;52.402;9.800;2023-03-20T17:15:56;5.27;;;4.43;;
12228;SDS011;6177;52.402;9.800;2023-03-20T17:18:58;5.00;;;4.60;;
12228;SDS011;6177;52.402;9.800;2023-03-20T17:22:12;4.80;;;4.53;;
12228;SDS011;6177;52.402;9.800;2023-03-20T17:25:04;5.67;;;4.47;;
12228;SDS011;6177;52.402;9.800;2023-03-20T17:27:55;5.00;;;4.60;;
12228;SDS011;6177;52.402;9.800;2023-03-20T17:30:46;6.70;;;5.37;;
12228;SDS011;6177;52.402;9.800;2023-03-20T17:33:37;6.70;;;5.90;;
12228;SDS011;6177;52.402;9.800;2023-03-20T17:36:32;6.57;;;5.63;;
12228;SDS011;6177;52.402;9.800;2023-03-20T17:39:23;6.53;;;5.77;;
12228;SDS011;6177;52.402;9.800;2023-03-20T17:42:15;6.23;;;5.60;;
12228;SDS011;6177;52.402;9.800;2023-03-20T17:45:08;7.40;;;6.63;;
12228;SDS011;6177;52.402;9.800;2023-03-20T17:48:01;6.67;;;6.10;;
12228;SDS011;6177;52.402;9.800;2023-03-20T17:50:52;7.50;;;6.90;;
12228;SDS011;6177;52.402;9.800;2023-03-20T17:53:43;6.77;;;6.20;;
12228;SDS011;6177;52.402;9.800;2023-03-20T17:56:34;6.07;;;5.67;;
12228;SDS011;6177;52.402;9.800;2023-03-20T17:59:25;6.13;;;5.53;;
12228;SDS011;6177;52.402;9.800;2023-03-20T18:02:20;6.47;;;6.00;;
12228;SDS011;6177;52.402;9.800;2023-03-20T18:05:11;6.27;;;5.73;;
12228;SDS011;6177;52.402;9.800;2023-03-20T18:08:02;7.03;;;6.03;;
12228;SDS011;6177;52.402;9.800;2023-03-20T18:10:52;5.77;;;5.47;;
12228;SDS011;6177;52.402;9.800;2023-03-20T18:13:43;6.40;;;5.87;;
12228;SDS011;6177;52.402;9.800;2023-03-20T18:16:34;6.13;;;5.70;;
12228;SDS011;6177;52.402;9.800;2023-03-20T18:19:25;5.93;;;5.40;;
12228;SDS011;6177;52.402;9.800;2023-03-20T18:22:17;6.70;;;6.10;;
12228;SDS011;6177;52.402;9.800;2023-03-20T18:25:07;5.90;;;5.50;;
12228;SDS011;6177;52.402;9.800;2023-03-20T18:27:59;5.60;;;5.27;;
12228;SDS011;6177;52.402;9.800;2023-03-20T18:30:50;5.90;;;5.50;;
12228;SDS011;6177;52.402;9.800;2023-03-20T18:33:41;5.87;;;5.37;;
12228;SDS011;6177;52.402;9.800;2023-03-20T18:36:32;5.57;;;5.03;;
12228;SDS011;6177;52.402;9.800;2023-03-20T18:39:23;5.80;;;5.40;;
12228;SDS011;6177;52.402;9.800;2023-03-20T18:42:14;5.67;;;5.17;;
12228;SDS011;6177;52.402;9.800;2023-03-20T18:45:07;5.40;;;5.00;;
12228;SDS011;6177;52.402;9.800;2023-03-20T18:47:58;5.77;;;5.27;;
12228;SDS011;6177;52.402;9.800;2023-03-20T18:50:52;6.27;;;5.77;;
12228;SDS011;6177;52.402;9.800;2023-03-20T18:53:50;5.07;;;4.77;;
12228;SDS011;6177;52.402;9.800;2023-03-20T18:56:41;6.03;;;5.50;;
12228;SDS011;6177;52.402;9.800;2023-03-20T18:59:32;6.13;;;5.63;;
12228;SDS011;6177;52.402;9.800;2023-03-20T19:02:22;7.20;;;6.50;;
12228;SDS011;6177;52.402;9.800;2023-03-20T19:05:13;7.03;;;6.27;;
12228;SDS011;6177;52.402;9.800;2023-03-20T19:08:04;6.87;;;6.37;;
12228;SDS011;6177;52.402;9.800;2023-03-20T19:10:55;8.07;;;5.73;;
12228;SDS011;6177;52.402;9.800;2023-03-20T19:13:50;6.43;;;5.90;;
12228;SDS011;6177;52.402;9.800;2023-03-20T19:16:42;6.00;;;5.63;;
12228;SDS011;6177;52.402;9.800;2023-03-20T19:19:32;5.40;;;5.00;;
12228;SDS011;6177;52.402;9.800;2023-03-20T19:22:24;5.73;;;5.20;;
12228;SDS011;6177;52.402;9.800;2023-03-20T19:25:15;5.40;;;4.90;;
12228;SDS011;6177;52.402;9.800;2023-03-20T19:28:06;5.63;;;4.93;;
12228;SDS011;6177;52.402;9.800;2023-03-20T19:30:57;5.57;;;5.07;;
12228;SDS011;6177;52.402;9.800;2023-03-20T19:33:48;6.47;;;5.93;;
12228;SDS011;6177;52.402;9.800;2023-03-20T19:36:39;6.07;;;5.53;;
12228;SDS011;6177;52.402;9.800;2023-03-20T19:39:32;6.13;;;5.63;;
12228;SDS011;6177;52.402;9.800;2023-03-20T19:42:22;5.97;;;5.47;;
12228;SDS011;6177;52.402;9.800;2023-03-20T19:45:13;6.73;;;6.27;;
12228;SDS011;6177;52.402;9.800;2023-03-20T19:48:14;7.13;;;6.47;;
12228;SDS011;6177;52.402;9.800;2023-03-20T19:51:07;8.03;;;6.13;;
12228;SDS011;6177;52.402;9.800;2023-03-20T19:54:03;7.10;;;6.60;;
12228;SDS011;6177;52.402;9.800;2023-03-20T19:56:54;6.77;;;6.27;;
12228;SDS011;6177;52.402;9.800;2023-03-20T19:59:45;8.03;;;7.23;;
12228;SDS011;6177;52.402;9.800;2023-03-20T20:02:36;8.33;;;7.70;;
12228;SDS011;6177;52.402;9.800;2023-03-20T20:05:28;8.67;;;8.17;;
12228;SDS011;6177;52.402;9.800;2023-03-20T20:08:20;8.63;;;7.93;;
12228;SDS011;6177;52.402;9.800;2023-03-20T20:11:11;10.10;;;9.27;;
12228;SDS011;6177;52.402;9.800;2023-03-20T20:14:03;10.10;;;9.27;;